createdAt,value
2022-10-29T00:03:50.368Z,97267.84
2022-10-29T00:08:52.900Z,97299.78
2022-10-29T00:13:58.496Z,97306.03
2022-10-29T00:19:01.072Z,97312.09
2022-10-29T00:24:03.970Z,97369.63
2022-10-29T00:29:07.825Z,97461.69
2022-10-29T00:34:10.375Z,97490.94
2022-10-29T00:39:14.395Z,97516.75
2022-10-29T00:44:28.759Z,97587.50
2022-10-29T00:49:32.919Z,97723.00
2022-10-29T00:54:38.718Z,97764.59
2022-10-29T00:59:44.009Z,97784.16
2022-10-29T01:04:47.160Z,97805.44
2022-10-29T01:09:50.335Z,97879.78
2022-10-29T01:15:02.150Z,97952.34
2022-10-29T01:20:36.987Z,97994.00
2022-10-29T01:26:00.432Z,98035.66
2022-10-29T01:31:18.146Z,98056.84
2022-10-29T01:36:26.728Z,98085.13
2022-10-29T01:41:34.161Z,98177.19
2022-10-29T01:46:41.214Z,98240.84
2022-10-29T01:51:44.372Z,98437.19
2022-10-29T01:56:54.931Z,98552.19
2022-10-29T02:02:08.989Z,98619.41
2022-10-29T02:07:18.207Z,98740.72
2022-10-29T02:12:24.680Z,98983.97
2022-10-29T02:17:28.409Z,99050.31
2022-10-29T02:22:31.038Z,99118.44
2022-10-29T02:27:33.582Z,99169.78
2022-10-29T02:32:37.478Z,99217.53
2022-10-29T02:37:40.044Z,99228.19
2022-10-29T02:42:42.629Z,99475.00
2022-10-29T02:47:46.551Z,99541.38
2022-10-29T02:52:49.140Z,99627.09
2022-10-29T02:57:51.730Z,99647.38
2022-10-29T03:02:56.080Z,99695.00
2022-10-29T03:07:58.939Z,99733.00
2022-10-29T03:13:01.653Z,99778.94
2022-10-29T03:18:06.203Z,99801.84
2022-10-29T03:23:09.003Z,99796.59
2022-10-29T03:28:12.003Z,99839.84
2022-10-29T03:33:16.117Z,99843.25
2022-10-29T03:38:18.676Z,99824.72
2022-10-29T03:43:21.331Z,99832.69
2022-10-29T03:48:25.985Z,99842.38
2022-10-29T03:53:29.628Z,99858.94
2022-10-29T03:58:32.230Z,99830.81
2022-10-29T04:03:37.261Z,99844.03
2022-10-29T04:08:40.387Z,99854.66
2022-10-29T04:13:42.940Z,99861.78
2022-10-29T04:18:48.895Z,99857.25
2022-10-29T04:27:01.755Z,99882.75
2022-10-29T04:29:14.339Z,99940.81
2022-10-29T04:34:18.273Z,99939.97
2022-10-29T04:39:23.356Z,99931.28
2022-10-29T04:44:26.196Z,99958.50
2022-10-29T04:49:30.190Z,99987.41
2022-10-29T04:54:32.860Z,99934.81
2022-10-29T04:59:35.421Z,99951.34
2022-10-29T05:04:39.344Z,99940.66
2022-10-29T05:09:41.881Z,99926.38
2022-10-29T05:14:44.491Z,99881.41
2022-10-29T05:19:48.384Z,99843.50
2022-10-29T05:24:50.940Z,99837.06
2022-10-29T05:29:53.494Z,99796.59
2022-10-29T05:34:57.371Z,99790.41
2022-10-29T05:39:59.963Z,99780.59
2022-10-29T05:45:02.538Z,99768.19
2022-10-29T05:50:07.516Z,99739.03
2022-10-29T05:55:10.464Z,99731.00
2022-10-29T06:00:13.834Z,99716.72
2022-10-29T06:05:17.759Z,99676.97
2022-10-29T06:10:20.425Z,99653.97
2022-10-29T06:15:23.729Z,99643.25
2022-10-29T06:20:27.655Z,99593.94
2022-10-29T06:25:30.277Z,99599.34
2022-10-29T06:30:34.122Z,99600.09
2022-10-29T06:35:38.011Z,99580.69
2022-10-29T06:40:40.881Z,99562.25
2022-10-29T06:45:43.505Z,99561.25
2022-10-29T06:50:47.506Z,99515.44
2022-10-29T06:55:50.169Z,99501.38
2022-10-29T07:00:52.835Z,99466.13
2022-10-29T07:06:00.730Z,99414.06
2022-10-29T07:11:04.380Z,99313.53
2022-10-29T07:16:07.992Z,99256.16
2022-10-29T07:21:12.679Z,99247.31
2022-10-29T07:26:15.289Z,99262.22
2022-10-29T07:31:17.871Z,99219.84
2022-10-29T07:36:21.883Z,99191.59
2022-10-29T07:41:24.433Z,99181.88
2022-10-29T07:46:26.987Z,99164.19
2022-10-29T07:51:31.033Z,99119.16
2022-10-29T07:56:33.572Z,99120.00
2022-10-29T08:01:36.248Z,99076.78
2022-10-29T08:06:40.501Z,99097.97
2022-10-29T08:11:43.124Z,99031.72
2022-10-29T08:16:46.654Z,98977.78
2022-10-29T08:21:50.531Z,98960.97
2022-10-29T08:26:53.113Z,98946.81
2022-10-29T08:31:55.669Z,98909.66
2022-10-29T08:36:59.552Z,98897.25
2022-10-29T08:42:11.392Z,98909.63
2022-10-29T08:47:16.045Z,98909.59
2022-10-29T08:52:24.351Z,98924.66
2022-10-29T08:57:27.895Z,98936.16
2022-10-29T09:02:31.096Z,98937.03
2022-10-29T09:07:48.081Z,98943.22
2022-10-29T09:13:01.230Z,98952.97
2022-10-29T09:18:21.260Z,98928.13
2022-10-29T09:23:31.817Z,98907.75
2022-10-29T09:28:40.631Z,98928.09
2022-10-29T09:33:44.046Z,98923.66
2022-10-29T09:38:55.562Z,98903.19
2022-10-29T09:44:02.100Z,98920.84
2022-10-29T09:49:14.041Z,98885.28
2022-10-29T09:54:18.254Z,98868.28
2022-10-29T09:59:26.950Z,98836.09
2022-10-29T10:04:32.164Z,98860.91
2022-10-29T10:09:57.998Z,98887.41
2022-10-29T10:15:06.857Z,98899.59
2022-10-29T10:20:27.626Z,98940.28
2022-10-29T10:25:37.559Z,98978.25
2022-10-29T10:30:40.300Z,99060.75
2022-10-29T10:35:42.869Z,99112.94
2022-10-29T10:40:55.616Z,99241.72
2022-10-29T10:45:59.746Z,99276.19
2022-10-29T10:51:17.817Z,99341.06
2022-10-29T10:56:23.531Z,99374.88
2022-10-29T11:01:29.473Z,99425.69
2022-10-29T11:06:34.421Z,99381.06
2022-10-29T11:11:39.993Z,99371.91
2022-10-29T11:16:45.364Z,99412.72
2022-10-29T11:21:56.454Z,99435.06
2022-10-29T11:27:02.607Z,99387.00
2022-10-29T11:32:09.464Z,99313.81
2022-10-29T11:37:17.362Z,99258.38
2022-10-29T11:42:21.289Z,99177.97
2022-10-29T11:47:42.339Z,99306.94
2022-10-29T11:52:48.497Z,99266.75
2022-10-29T11:57:54.505Z,99038.84
2022-10-29T12:03:36.503Z,98941.50
2022-10-29T12:08:50.028Z,98809.38
2022-10-29T12:13:59.722Z,98563.34
2022-10-29T12:19:08.210Z,98561.88
2022-10-29T12:24:19.704Z,98619.22
2022-10-29T12:29:27.188Z,98676.47
2022-10-29T12:34:33.008Z,98798.28
2022-10-29T12:39:38.600Z,98930.66
2022-10-29T12:44:46.288Z,99003.91
2022-10-29T12:49:55.790Z,99157.63
2022-10-29T12:55:00.781Z,99208.91
2022-10-29T13:00:36.947Z,99166.50
2022-10-29T13:05:42.864Z,98942.28
2022-10-29T13:10:53.755Z,98930.88
2022-10-29T13:16:00.795Z,99027.28
2022-10-29T13:21:04.885Z,99138.66
2022-10-29T13:26:08.323Z,99283.44
2022-10-29T13:31:44.416Z,99307.53
2022-10-29T13:36:48.367Z,99337.19
2022-10-29T13:41:52.049Z,99339.00
2022-10-29T13:46:56.830Z,99342.47
2022-10-29T13:52:06.153Z,99360.97
2022-10-29T13:57:16.944Z,99429.59
2022-10-29T14:02:39.296Z,99436.94
2022-10-29T14:07:51.137Z,99530.84
2022-10-29T14:12:56.798Z,99522.00
2022-10-29T14:17:59.586Z,99516.72
2022-10-29T14:23:09.380Z,99495.28
2022-10-29T14:28:17.280Z,99478.56
2022-10-29T14:33:25.344Z,99473.25
2022-10-29T14:38:37.499Z,99460.75
2022-10-29T14:43:40.322Z,99449.09
2022-10-29T14:48:51.694Z,99447.25
2022-10-29T14:53:58.117Z,99457.91
2022-10-29T14:59:00.999Z,99473.53
2022-10-29T15:04:03.653Z,99471.66
2022-10-29T15:09:20.044Z,99509.41
2022-10-29T15:14:29.569Z,99473.88
2022-10-29T15:19:32.157Z,99518.38
2022-10-29T15:24:36.473Z,99548.09
2022-10-29T15:29:43.228Z,99557.19
2022-10-29T15:34:50.870Z,99573.38
2022-10-29T15:40:03.327Z,99605.47
2022-10-29T15:45:22.730Z,99622.50
2022-10-29T15:50:27.338Z,99606.53
2022-10-29T15:55:33.060Z,99611.09
2022-10-29T16:00:35.988Z,99595.16
2022-10-29T16:05:38.626Z,99587.16
2022-10-29T16:10:42.639Z,99590.78
2022-10-29T16:15:47.749Z,99597.06
2022-10-29T16:20:51.136Z,99590.03
2022-10-29T16:25:55.103Z,99578.50
2022-10-29T16:31:00.096Z,99574.06
2022-10-29T16:36:03.432Z,99575.88
2022-10-29T16:41:08.279Z,99564.34
2022-10-29T16:46:11.921Z,99560.78
2022-10-29T16:51:14.532Z,99552.81
2022-10-29T16:56:18.556Z,99526.16
2022-10-29T17:06:29.813Z,99495.91
2022-10-29T17:11:33.814Z,99519.03
2022-10-29T17:16:36.579Z,99504.00
2022-10-29T17:21:39.417Z,99500.44
2022-10-29T17:26:43.461Z,99489.81
2022-10-29T17:31:46.127Z,99502.25
2022-10-29T17:36:49.548Z,99486.31
2022-10-29T17:41:53.640Z,99495.22
2022-10-29T17:46:56.623Z,99472.13
2022-10-29T17:51:59.263Z,99418.81
2022-10-29T17:57:03.194Z,99392.19
2022-10-29T18:02:05.886Z,99347.75
2022-10-29T18:07:08.542Z,99289.13
2022-10-29T18:12:12.440Z,99290.06
2022-10-29T18:17:15.059Z,99298.06
2022-10-29T18:22:17.784Z,99303.47
2022-10-29T18:27:22.057Z,99238.63
2022-10-29T18:32:24.678Z,99182.72
2022-10-29T18:37:27.236Z,99142.84
2022-10-29T18:42:31.392Z,99086.91
2022-10-29T18:47:33.949Z,99066.53
2022-10-29T18:52:36.661Z,99054.09
2022-10-29T18:57:40.616Z,99055.94
2022-10-29T19:02:43.260Z,99040.91
2022-10-29T19:07:45.857Z,99032.00
2022-10-29T19:12:49.764Z,99039.19
2022-10-29T19:17:52.399Z,99017.88
2022-10-29T19:22:55.958Z,99009.09
2022-10-29T19:28:00.120Z,98974.59
2022-10-29T19:33:07.718Z,98890.34
2022-10-29T19:38:10.866Z,98850.47
2022-10-29T19:43:14.799Z,98834.56
2022-10-29T19:48:17.855Z,98799.13
2022-10-29T19:53:20.452Z,98777.06
2022-10-29T19:58:28.718Z,98740.72
2022-10-29T20:03:31.328Z,98694.63
2022-10-29T20:08:34.355Z,98668.91
2022-10-29T20:13:39.909Z,98628.28
2022-10-29T20:18:42.570Z,98610.59
2022-10-29T20:23:45.678Z,98587.53
2022-10-29T20:28:49.664Z,98604.47
2022-10-29T20:33:53.000Z,98614.31
2022-10-29T20:38:55.706Z,98623.13
2022-10-29T20:44:01.097Z,98631.13
2022-10-29T20:49:04.049Z,98638.31
2022-10-29T20:54:06.892Z,98641.00
2022-10-29T20:59:10.842Z,98654.28
2022-10-29T21:04:14.414Z,98682.66
2022-10-29T21:09:16.998Z,98683.59
2022-10-29T21:14:20.987Z,98713.72
2022-10-29T21:19:24.654Z,98717.28
2022-10-29T21:24:27.211Z,98722.63
2022-10-29T21:29:31.108Z,98731.47
2022-10-29T21:34:33.694Z,98735.00
2022-10-29T21:39:36.251Z,98746.56
2022-10-29T21:44:40.160Z,98741.25
2022-10-29T21:49:44.974Z,98755.41
2022-10-29T21:54:51.534Z,98764.41
2022-10-29T21:59:55.467Z,98737.00
2022-10-29T22:04:58.009Z,98724.59
2022-10-29T22:10:00.582Z,98695.41
2022-10-29T22:15:05.086Z,98646.78
2022-10-29T22:20:08.436Z,98620.28
2022-10-29T22:25:11.110Z,98593.84
2022-10-29T22:30:15.100Z,98542.66
2022-10-29T22:35:17.686Z,98412.59
2022-10-29T22:40:20.266Z,98372.78
2022-10-29T22:45:24.263Z,98364.84
2022-10-29T22:50:26.803Z,98341.09
2022-10-29T22:55:29.360Z,98264.13
2022-10-29T23:00:33.277Z,98197.75
2022-10-29T23:05:35.870Z,98186.72
2022-10-29T23:10:38.435Z,98009.91
2022-10-29T23:15:47.058Z,97931.06
2022-10-29T23:20:49.636Z,97904.63
2022-10-29T23:25:52.481Z,97845.66
2022-10-29T23:30:57.526Z,97796.94
2022-10-29T23:36:02.674Z,97666.22
2022-10-29T23:41:05.710Z,97647.69
2022-10-29T23:46:09.798Z,97619.50
2022-10-29T23:51:12.469Z,97558.75
2022-10-29T23:56:15.041Z,97470.59
